Time;durP1;ratioP1;P1;durP2;ratioP2;P2;SDS_P1;SDS_P2;PMS_P1;PMS_P2;Temp;Humidity;BMP_temperature;BMP_pressure;BME280_temperature;BME280_humidity;BME280_pressure;Samples;Min_cycle;Max_cycle;Signal;HPM_P1;HPM_P2
2023/07/13 00:02:02;;;;;;;8.82;5.10;;;;;;;29.01;44.84;99426.91;4499949;31;33792;-70
2023/07/13 00:04:31;;;;;;;9.85;4.45;;;;;;;29.00;44.78;99432.66;4499798;31;34479;-69
2023/07/13 00:07:00;;;;;;;7.68;4.10;;;;;;;29.01;44.71;99429.66;4499701;31;34190;-71
2023/07/13 00:09:28;;;;;;;7.37;4.60;;;;;;;29.02;44.73;99430.47;4499766;31;33719;-70
2023/07/13 00:11:56;;;;;;;8.98;4.95;;;;;;;29.01;44.73;99415.91;4499317;31;34002;-70
2023/07/13 00:14:25;;;;;;;7.37;4.65;;;;;;;29.01;44.75;99407.69;4499793;31;34740;-69
2023/07/13 00:16:53;;;;;;;6.82;4.78;;;;;;;29.00;44.80;99397.75;4499760;31;34361;-69
2023/07/13 00:19:20;;;;;;;5.93;3.85;;;;;;;29.02;44.78;99390.09;4499415;31;34657;-66
2023/07/13 00:21:48;;;;;;;8.63;4.40;;;;;;;29.01;44.84;99377.47;4499818;31;33713;-70
2023/07/13 00:24:21;;;;;;;9.27;4.45;;;;;;;29.02;44.87;99367.28;4499463;31;34086;-70
2023/07/13 00:26:49;;;;;;;6.28;4.05;;;;;;;29.01;44.89;99363.72;4473349;31;33674;-70
2023/07/13 00:29:17;;;;;;;9.93;4.07;;;;;;;29.01;44.92;99344.50;4499953;31;34087;-71
2023/07/13 00:31:46;;;;;;;7.20;3.97;;;;;;;29.02;44.94;99339.84;4499308;31;34151;-70
2023/07/13 00:34:13;;;;;;;6.95;4.32;;;;;;;29.01;44.94;99325.28;4499439;31;34658;-69
2023/07/13 00:36:41;;;;;;;6.25;4.28;;;;;;;29.03;44.92;99330.47;4499541;31;33710;-71
2023/07/13 00:39:08;;;;;;;6.80;3.83;;;;;;;29.03;44.91;99330.47;4499451;31;34665;-68
2023/07/13 00:41:36;;;;;;;7.47;4.68;;;;;;;29.01;44.95;99322.53;4499499;31;33677;-67
2023/07/13 00:44:04;;;;;;;8.73;4.00;;;;;;;29.01;44.95;99324.47;4499296;31;33954;-70
2023/07/13 00:46:32;;;;;;;6.80;3.92;;;;;;;29.01;44.92;99318.97;4498104;31;33545;-72
2023/07/13 00:49:05;;;;;;;7.32;4.40;;;;;;;29.01;44.90;99316.22;4499076;31;33477;-69
2023/07/13 00:51:53;;;;;;;8.25;4.10;;;;;;;29.00;44.90;99304.38;4485120;31;34711;-66
2023/07/13 00:54:29;;;;;;;8.10;4.18;;;;;;;29.03;44.84;99303.03;4485149;31;34602;-69
2023/07/13 00:56:59;;;;;;;7.62;4.00;;;;;;;29.01;44.86;99306.06;4499179;31;32934;-68
2023/07/13 00:59:27;;;;;;;5.60;3.47;;;;;;;29.00;44.84;99306.31;4485301;31;34071;-70
2023/07/13 01:01:54;;;;;;;7.95;3.78;;;;;;;29.00;44.78;99304.38;4499369;31;34129;-70
2023/07/13 01:04:24;;;;;;;7.07;3.78;;;;;;;28.99;44.81;99297.25;4499034;31;34959;-70
2023/07/13 01:06:52;;;;;;;6.97;3.42;;;;;;;28.97;44.79;99289.28;4499188;31;33430;-71
2023/07/13 01:09:21;;;;;;;6.90;3.67;;;;;;;29.00;44.69;99287.09;4484756;31;34001;-70
2023/07/13 01:11:49;;;;;;;4.68;3.15;;;;;;;28.97;44.68;99281.06;4499067;31;34013;-72
2023/07/13 01:14:16;;;;;;;5.57;2.55;;;;;;;28.98;44.61;99282.69;4498720;31;33840;-71
2023/07/13 01:16:47;;;;;;;5.22;2.60;;;;;;;28.99;44.42;99286.25;4498904;31;33464;-70
2023/07/13 01:19:27;;;;;;;6.28;2.80;;;;;;;28.96;44.32;99295.06;4497932;31;33872;-70
2023/07/13 01:21:55;;;;;;;6.75;3.30;;;;;;;28.97;44.31;99293.97;4485195;31;34552;-70
2023/07/13 01:24:22;;;;;;;4.70;2.67;;;;;;;28.96;44.38;99292.31;4498718;31;33820;-68
2023/07/13 01:26:50;;;;;;;4.75;2.47;;;;;;;28.95;44.39;99287.91;4500920;31;33450;-66
2023/07/13 01:29:17;;;;;;;7.07;2.72;;;;;;;28.94;44.39;99292.53;4499858;31;33729;-68
2023/07/13 01:31:45;;;;;;;6.15;2.90;;;;;;;28.94;44.37;99284.31;4500950;31;33837;-67
2023/07/13 01:34:13;;;;;;;4.72;2.40;;;;;;;28.95;44.36;99293.41;4500854;31;34589;-67
2023/07/13 01:36:40;;;;;;;4.15;2.40;;;;;;;28.93;44.33;99279.91;4501029;31;33748;-68
2023/07/13 01:39:08;;;;;;;4.62;2.17;;;;;;;28.93;44.28;99270.88;4500980;31;33948;-65
2023/07/13 01:41:36;;;;;;;4.32;2.20;;;;;;;28.93;44.22;99274.44;4499549;31;34868;-64
2023/07/13 01:44:04;;;;;;;4.20;2.30;;;;;;;28.94;44.17;99269.75;4501041;31;33944;-64
2023/07/13 01:46:31;;;;;;;6.03;2.60;;;;;;;28.93;44.15;99257.13;4499953;31;32516;-65
2023/07/13 01:48:59;;;;;;;5.20;2.30;;;;;;;28.92;44.08;99261.81;4499529;31;33733;-69
2023/07/13 01:51:27;;;;;;;4.28;2.00;;;;;;;28.91;44.00;99260.16;4500907;31;33983;-66
2023/07/13 01:53:54;;;;;;;3.65;2.10;;;;;;;28.92;43.93;99255.50;4500938;31;34336;-68
2023/07/13 01:56:23;;;;;;;4.33;2.00;;;;;;;28.91;43.86;99265.66;4500848;31;33017;-69
2023/07/13 01:58:51;;;;;;;6.30;2.35;;;;;;;28.91;43.79;99265.66;4501174;31;33561;-68
2023/07/13 02:01:19;;;;;;;5.72;2.33;;;;;;;28.90;43.74;99261.25;4501094;31;33989;-70
2023/07/13 02:03:47;;;;;;;4.72;2.08;;;;;;;28.91;43.68;99251.94;4500562;31;34630;-71
2023/07/13 02:06:14;;;;;;;7.43;2.67;;;;;;;28.90;43.68;99252.19;4500828;31;34239;-69
2023/07/13 02:08:42;;;;;;;6.62;2.45;;;;;;;28.89;43.64;99251.38;4500776;31;35173;-70
2023/07/13 02:11:10;;;;;;;4.50;1.98;;;;;;;28.88;43.64;99263.44;4487506;31;34002;-71
2023/07/13 02:13:38;;;;;;;4.93;2.15;;;;;;;28.88;43.61;99270.88;4485212;32;33610;-67
2023/07/13 02:16:06;;;;;;;5.15;2.10;;;;;;;28.88;43.55;99276.37;4485008;32;33598;-68
2023/07/13 02:18:33;;;;;;;4.37;2.00;;;;;;;28.87;43.52;99267.31;4484782;32;34513;-71
2023/07/13 02:21:02;;;;;;;5.72;2.10;;;;;;;28.86;43.51;99259.31;4485129;32;34230;-64
2023/07/13 02:23:30;;;;;;;5.22;2.20;;;;;;;28.86;43.48;99262.06;4485093;32;33814;-69
2023/07/13 02:25:58;;;;;;;3.70;2.00;;;;;;;28.86;43.44;99260.16;4484967;32;33361;-70
2023/07/13 02:28:27;;;;;;;4.80;1.92;;;;;;;28.85;43.48;99250.25;4484706;32;33832;-70
2023/07/13 02:30:55;;;;;;;4.12;2.03;;;;;;;28.86;43.44;99253.81;4484702;32;34030;-70
2023/07/13 02:33:22;;;;;;;5.32;2.28;;;;;;;28.86;43.47;99270.31;4484838;32;33770;-70
2023/07/13 02:35:50;;;;;;;6.65;2.12;;;;;;;28.84;43.49;99269.78;4483700;32;33484;-68
2023/07/13 02:38:17;;;;;;;5.87;1.90;;;;;;;28.85;43.50;99271.41;4485019;32;34582;-68
2023/07/13 02:40:46;;;;;;;6.18;2.30;;;;;;;28.84;43.50;99261.53;4484769;32;34540;-69
2023/07/13 02:43:13;;;;;;;4.78;2.28;;;;;;;28.82;43.50;99255.47;4484643;32;34693;-71
2023/07/13 02:45:45;;;;;;;4.18;1.90;;;;;;;28.82;43.50;99263.72;4484637;32;34251;-67
2023/07/13 02:48:13;;;;;;;4.12;2.37;;;;;;;28.82;43.50;99280.19;4484900;32;34666;-67
2023/07/13 02:50:41;;;;;;;4.25;2.00;;;;;;;28.81;43.44;99293.09;4483434;32;33518;-68
2023/07/13 02:53:08;;;;;;;6.20;2.15;;;;;;;28.81;43.39;99278.53;4484449;32;34012;-65
2023/07/13 02:55:36;;;;;;;4.35;2.17;;;;;;;28.81;43.38;99273.06;4483612;32;34298;-67
2023/07/13 02:58:04;;;;;;;5.25;2.33;;;;;;;28.80;43.37;99280.47;4484952;32;33969;-68
2023/07/13 03:00:31;;;;;;;5.28;2.35;;;;;;;28.80;43.36;99277.72;4484784;32;34002;-70
2023/07/13 03:02:59;;;;;;;4.82;2.42;;;;;;;28.79;43.36;99284.31;4484634;32;34050;-69
2023/07/13 03:05:28;;;;;;;3.40;1.98;;;;;;;28.80;43.37;99302.44;4484888;32;33589;-70
2023/07/13 03:07:57;;;;;;;4.75;2.12;;;;;;;28.81;43.33;99311.50;4484308;32;34066;-71
2023/07/13 03:10:44;;;;;;;5.40;2.42;;;;;;;28.79;43.35;99314.53;4495312;31;33774;-70
2023/07/13 03:13:12;;;;;;;4.85;2.70;;;;;;;28.79;43.34;99324.69;4500442;31;34012;-71
2023/07/13 03:15:40;;;;;;;4.85;2.20;;;;;;;28.77;43.35;99329.63;4500333;31;34280;-70
2023/07/13 03:18:08;;;;;;;4.90;2.25;;;;;;;28.77;43.34;99324.13;4500560;31;34409;-71
2023/07/13 03:20:35;;;;;;;5.40;2.15;;;;;;;28.77;43.34;99321.38;4500129;31;33863;-71
2023/07/13 03:23:04;;;;;;;4.47;2.25;;;;;;;28.77;43.34;99315.87;4500265;31;33960;-71
2023/07/13 03:25:31;;;;;;;6.12;2.45;;;;;;;28.76;43.38;99306.00;4498999;31;33133;-71
2023/07/13 03:28:00;;;;;;;7.65;2.53;;;;;;;28.75;43.38;99312.59;4500083;31;33533;-68
2023/07/13 03:30:27;;;;;;;4.85;2.47;;;;;;;28.77;43.35;99307.66;4499225;31;33706;-70
2023/07/13 03:32:55;;;;;;;4.07;2.35;;;;;;;28.75;43.39;99305.19;4500432;31;34108;-70
2023/07/13 03:35:24;;;;;;;5.70;2.20;;;;;;;28.75;43.41;99307.09;4500328;31;33572;-69
2023/07/13 03:37:51;;;;;;;7.12;2.40;;;;;;;28.75;43.40;99307.09;4500188;31;33877;-69
2023/07/13 03:40:19;;;;;;;6.70;2.62;;;;;;;28.72;43.46;99314.81;4500257;31;33811;-69
2023/07/13 03:42:47;;;;;;;5.57;2.85;;;;;;;28.72;43.49;99325.78;4499972;31;33874;-72
2023/07/13 03:45:15;;;;;;;4.78;2.20;;;;;;;28.72;43.54;99323.03;4500412;31;33699;-70
2023/07/13 03:47:42;;;;;;;5.18;2.35;;;;;;;28.72;43.57;99323.03;4499509;31;33593;-70
2023/07/13 03:50:10;;;;;;;5.93;2.50;;;;;;;28.71;43.61;99318.62;4499971;31;33796;-71
2023/07/13 03:52:38;;;;;;;6.37;2.40;;;;;;;28.72;43.66;99328.53;4500236;31;34168;-71
2023/07/13 03:55:06;;;;;;;5.55;2.90;;;;;;;28.72;43.70;99330.44;4500353;31;32967;-70
2023/07/13 03:57:34;;;;;;;5.03;2.78;;;;;;;28.72;43.75;99328.53;4500381;31;33251;-69
2023/07/13 04:00:06;;;;;;;4.55;2.60;;;;;;;28.71;43.85;99328.78;4499904;31;34035;-65
2023/07/13 04:02:42;;;;;;;6.03;2.70;;;;;;;28.72;43.89;99327.69;4499760;31;34125;-68
2023/07/13 04:05:10;;;;;;;4.40;2.47;;;;;;;28.72;43.91;99342.25;4500206;31;34308;-65
2023/07/13 04:07:37;;;;;;;5.40;2.67;;;;;;;28.71;43.97;99354.31;4499697;31;33870;-68
2023/07/13 04:10:06;;;;;;;5.45;3.00;;;;;;;28.71;44.01;99380.94;4493229;31;34724;-69
2023/07/13 04:12:34;;;;;;;8.68;2.60;;;;;;;28.71;44.08;99386.44;4484150;32;32888;-67
2023/07/13 04:15:03;;;;;;;9.07;2.75;;;;;;;28.72;44.12;99388.09;4484044;32;33439;-70
2023/07/13 04:17:31;;;;;;;7.87;3.00;;;;;;;28.72;44.16;99393.56;4482629;32;33899;-70
2023/07/13 04:19:58;;;;;;;5.95;3.03;;;;;;;28.72;44.19;99380.69;4483973;32;34063;-70
2023/07/13 04:22:26;;;;;;;8.27;3.15;;;;;;;28.71;44.27;99392.75;4483828;32;34659;-70
2023/07/13 04:24:53;;;;;;;5.43;2.60;;;;;;;28.71;44.30;99398.25;4487709;31;33181;-69
2023/07/13 04:27:21;;;;;;;5.85;2.90;;;;;;;28.71;44.38;99414.72;4499587;31;33859;-69
2023/07/13 04:29:52;;;;;;;7.00;2.70;;;;;;;28.70;44.49;99415.81;4499517;31;34861;-71
2023/07/13 04:32:20;;;;;;;5.45;2.75;;;;;;;28.71;44.60;99422.13;4497586;31;33597;-70
2023/07/13 04:34:51;;;;;;;6.75;2.78;;;;;;;28.70;44.62;99423.22;4498321;31;33511;-65
2023/07/13 04:37:20;;;;;;;5.40;2.50;;;;;;;28.70;44.68;99432.28;4499339;31;33949;-64
2023/07/13 04:39:47;;;;;;;5.45;2.95;;;;;;;28.69;44.71;99440.81;4485291;31;33885;-64
2023/07/13 04:42:15;;;;;;;8.95;3.72;;;;;;;28.69;44.79;99452.63;4499311;31;34575;-64
2023/07/13 04:44:49;;;;;;;5.32;2.78;;;;;;;28.68;44.84;99456.47;4499307;31;34199;-64
2023/07/13 04:47:18;;;;;;;5.65;2.92;;;;;;;28.68;44.88;99459.22;4499636;31;35320;-65
2023/07/13 04:49:45;;;;;;;5.93;3.17;;;;;;;28.68;44.95;99459.22;4498025;31;34697;-69
2023/07/13 04:52:13;;;;;;;6.43;3.15;;;;;;;28.69;45.02;99479.25;4499137;31;34572;-68
2023/07/13 04:54:40;;;;;;;6.47;2.97;;;;;;;28.69;45.07;99492.97;4499319;31;34379;-70
2023/07/13 04:57:08;;;;;;;5.57;3.25;;;;;;;28.68;45.13;99500.38;4499164;31;33857;-70
2023/07/13 04:59:35;;;;;;;7.30;3.50;;;;;;;28.68;45.23;99518.78;4499959;31;34960;-71
2023/07/13 05:02:03;;;;;;;5.87;3.00;;;;;;;28.67;45.31;99561.84;4501356;31;34765;-70
2023/07/13 05:04:32;;;;;;;6.53;3.35;;;;;;;28.69;45.43;99580.81;4501348;31;33613;-70
2023/07/13 05:06:59;;;;;;;7.40;3.55;;;;;;;28.68;45.50;99610.19;4494578;31;34598;-68
2023/07/13 05:09:27;;;;;;;5.95;3.17;;;;;;;28.68;45.67;99637.66;4484766;31;34689;-71
2023/07/13 05:11:55;;;;;;;6.00;3.12;;;;;;;28.69;45.78;99657.69;4485555;32;33636;-67
2023/07/13 05:14:22;;;;;;;7.72;3.22;;;;;;;28.67;45.90;99655.19;4490106;31;33425;-69
2023/07/13 05:16:50;;;;;;;6.00;3.58;;;;;;;28.67;46.01;99666.19;4500042;31;33911;-67
2023/07/13 05:19:17;;;;;;;9.02;3.40;;;;;;;28.67;46.10;99671.66;4499954;31;34796;-71
2023/07/13 05:21:45;;;;;;;5.30;3.10;;;;;;;28.67;46.13;99666.19;4501052;31;34159;-70
2023/07/13 05:24:13;;;;;;;8.35;3.47;;;;;;;28.67;46.18;99668.94;4501281;31;33974;-71
2023/07/13 05:26:51;;;;;;;7.32;3.10;;;;;;;28.67;46.25;99659.88;4501074;31;33626;-70
2023/07/13 05:29:20;;;;;;;7.97;3.05;;;;;;;28.67;46.33;99673.59;4501071;31;33711;-64
2023/07/13 05:31:48;;;;;;;6.20;3.00;;;;;;;28.67;46.41;99670.84;4501123;31;34627;-64
2023/07/13 05:34:16;;;;;;;7.05;2.97;;;;;;;28.65;46.45;99656.56;4500945;31;33393;-64
2023/07/13 05:36:44;;;;;;;7.43;2.90;;;;;;;28.63;46.46;99648.63;4499982;31;33988;-64
2023/07/13 05:39:11;;;;;;;6.62;2.65;;;;;;;28.64;46.48;99627.47;4501076;31;34015;-65
2023/07/13 05:41:39;;;;;;;7.22;2.97;;;;;;;28.63;46.48;99614.81;4501162;31;33649;-64
2023/07/13 05:44:06;;;;;;;6.85;2.80;;;;;;;28.63;46.48;99612.94;4501036;31;33310;-67
2023/07/13 05:46:34;;;;;;;6.93;2.50;;;;;;;28.61;46.47;99604.13;4500856;31;34146;-64
2023/07/13 05:49:02;;;;;;;6.78;2.65;;;;;;;28.61;46.41;99598.63;4500822;31;33727;-66
2023/07/13 05:51:30;;;;;;;6.62;2.67;;;;;;;28.61;46.42;99584.91;4501303;31;33879;-71
2023/07/13 05:53:58;;;;;;;8.13;2.50;;;;;;;28.60;46.37;99571.44;4501101;31;34315;-71
2023/07/13 05:56:26;;;;;;;4.65;2.12;;;;;;;28.59;46.37;99576.13;4501238;31;33961;-70
2023/07/13 05:58:54;;;;;;;5.85;2.47;;;;;;;28.59;46.39;99580.78;4500837;31;33804;-71
2023/07/13 06:01:23;;;;;;;5.25;2.40;;;;;;;28.57;46.44;99570.03;4500889;31;34781;-65
2023/07/13 06:03:51;;;;;;;6.25;2.35;;;;;;;28.57;46.37;99545.34;4500896;31;34765;-64
2023/07/13 06:06:18;;;;;;;4.37;2.17;;;;;;;28.57;46.33;99495.94;4500919;31;33815;-65
2023/07/13 06:08:46;;;;;;;6.93;2.42;;;;;;;28.55;46.31;99385.59;4500775;31;34976;-64
2023/07/13 06:11:15;;;;;;;4.53;2.08;;;;;;;28.53;46.33;99263.44;4486768;31;33694;-65
2023/07/13 06:13:42;;;;;;;5.62;2.12;;;;;;;28.53;46.35;99208.56;4485073;32;33802;-63
2023/07/13 06:16:11;;;;;;;7.60;2.37;;;;;;;28.52;46.39;99205.00;4484947;32;33980;-66
2023/07/13 06:18:39;;;;;;;5.37;2.00;;;;;;;28.52;46.39;99239.84;4484987;32;34752;-67
2023/07/13 06:21:07;;;;;;;4.05;2.00;;;;;;;28.52;46.34;99246.16;4483716;32;34263;-64
2023/07/13 06:23:35;;;;;;;5.33;2.13;;;;;;;28.52;46.31;99228.88;4484831;32;33327;-64
2023/07/13 06:26:04;;;;;;;4.70;2.12;;;;;;;28.52;46.28;99195.94;4483682;32;34861;-65
2023/07/13 06:28:33;;;;;;;5.28;2.22;;;;;;;28.51;46.25;99167.66;4484784;32;34219;-68
2023/07/13 06:31:00;;;;;;;4.20;1.87;;;;;;;28.52;46.22;99165.75;4484588;32;33901;-70
2023/07/13 06:33:28;;;;;;;5.20;2.37;;;;;;;28.53;46.08;99192.91;4483719;32;33544;-71
2023/07/13 06:35:56;;;;;;;4.25;1.73;;;;;;;28.53;46.01;99176.44;4484699;32;33887;-70
2023/07/13 06:38:24;;;;;;;3.58;1.60;;;;;;;28.54;45.97;99163.53;4484742;32;34061;-71
2023/07/13 06:40:51;;;;;;;3.83;1.52;;;;;;;28.54;45.95;99182.75;4484755;32;33805;-70
2023/07/13 06:43:20;;;;;;;4.25;1.70;;;;;;;28.55;45.92;99173.44;4485066;32;33275;-63
2023/07/13 06:45:49;;;;;;;3.22;1.80;;;;;;;28.56;45.87;99166.84;4484626;32;34269;-70
2023/07/13 06:48:18;;;;;;;5.50;2.30;;;;;;;28.57;45.80;99180.28;4484698;32;33993;-69
2023/07/13 06:50:47;;;;;;;3.60;2.00;;;;;;;28.58;45.79;99187.41;4484690;32;34127;-63
2023/07/13 06:53:14;;;;;;;4.65;2.10;;;;;;;28.59;45.79;99191.00;4483440;32;33471;-66
2023/07/13 06:55:43;;;;;;;4.97;1.90;;;;;;;28.60;45.75;99187.97;4484714;32;34963;-70
2023/07/13 06:58:11;;;;;;;6.55;2.03;;;;;;;28.60;45.76;99206.38;4484740;32;34449;-71
2023/07/13 07:00:40;;;;;;;2.72;1.35;;;;;;;28.60;45.72;99229.16;4484363;32;33888;-70
2023/07/13 07:03:08;;;;;;;3.05;1.60;;;;;;;28.61;45.68;99246.44;4484910;32;33390;-70
2023/07/13 07:05:35;;;;;;;5.37;2.17;;;;;;;28.62;45.63;99231.59;4483356;32;33637;-71
2023/07/13 07:08:03;;;;;;;3.25;1.52;;;;;;;28.61;45.67;99252.75;4484678;32;34003;-71
2023/07/13 07:10:31;;;;;;;4.07;1.80;;;;;;;28.63;45.71;99397.94;4493483;31;33959;-71
2023/07/13 07:12:59;;;;;;;2.65;1.50;;;;;;;28.63;45.64;99411.66;4499190;31;34358;-68
2023/07/13 07:15:26;;;;;;;2.97;1.67;;;;;;;28.64;45.60;99430.63;4500218;31;33686;-71
2023/07/13 07:17:54;;;;;;;3.28;1.80;;;;;;;28.64;45.59;99429.81;4499402;31;34714;-69
2023/07/13 07:20:22;;;;;;;3.80;1.58;;;;;;;28.65;45.64;99456.16;4500359;31;34809;-70
2023/07/13 07:22:49;;;;;;;4.90;1.85;;;;;;;28.65;45.67;99435.03;4497977;31;33151;-65
2023/07/13 07:25:17;;;;;;;3.95;1.70;;;;;;;28.66;45.73;99433.94;4499945;31;33916;-71
2023/07/13 07:27:45;;;;;;;3.78;1.67;;;;;;;28.67;45.73;99438.31;4499019;31;33997;-65
2023/07/13 07:30:15;;;;;;;4.20;1.90;;;;;;;28.67;45.68;99446.56;4498497;31;34103;-72
2023/07/13 07:32:46;;;;;;;2.62;1.60;;;;;;;28.68;45.63;99461.94;4500494;31;34112;-68
2023/07/13 07:35:16;;;;;;;3.70;1.90;;;;;;;28.69;45.73;99463.59;4499899;31;34594;-66
2023/07/13 07:37:43;;;;;;;4.12;1.85;;;;;;;28.68;45.75;99464.69;4500283;31;34052;-65
2023/07/13 07:40:14;;;;;;;4.10;1.80;;;;;;;28.70;45.74;99467.16;4500211;31;34099;-72
2023/07/13 07:42:44;;;;;;;3.15;1.52;;;;;;;28.70;45.76;99476.22;4498873;31;34148;-68
2023/07/13 07:45:12;;;;;;;3.95;1.70;;;;;;;28.71;45.77;99474.31;4499040;31;34641;-66
2023/07/13 07:47:39;;;;;;;3.12;1.67;;;;;;;28.72;45.76;99462.22;4499845;31;34662;-66
2023/07/13 07:50:07;;;;;;;4.80;1.70;;;;;;;28.71;45.78;99477.88;4499402;31;35017;-65
2023/07/13 07:52:35;;;;;;;3.97;1.73;;;;;;;28.72;45.81;99482.28;4500338;31;33751;-67
2023/07/13 07:55:04;;;;;;;3.30;1.77;;;;;;;28.74;45.81;99479.25;4499555;31;34605;-71
2023/07/13 07:57:34;;;;;;;3.05;1.80;;;;;;;28.74;45.79;99490.25;4496572;31;34648;-65
2023/07/13 08:00:06;;;;;;;3.92;1.70;;;;;;;28.75;45.81;99489.13;4496831;31;33953;-66
2023/07/13 08:02:41;;;;;;;3.30;1.80;;;;;;;28.76;45.82;99495.44;4499048;31;33264;-66
2023/07/13 08:05:28;;;;;;;2.78;1.80;;;;;;;28.78;45.82;99493.28;4499445;31;33429;-70
2023/07/13 08:07:59;;;;;;;4.30;1.65;;;;;;;28.77;45.84;99481.44;4499511;31;34669;-68
2023/07/13 08:10:26;;;;;;;3.78;2.10;;;;;;;28.77;45.84;99484.19;4499287;31;33851;-65
2023/07/13 08:12:54;;;;;;;2.70;1.62;;;;;;;28.77;45.87;99475.94;4499844;31;33085;-65
2023/07/13 08:15:25;;;;;;;3.85;1.87;;;;;;;28.77;45.88;99486.94;4499627;31;33578;-70
2023/07/13 08:17:52;;;;;;;4.25;2.08;;;;;;;28.79;45.87;99478.44;4498902;31;33976;-70
2023/07/13 08:20:20;;;;;;;2.95;1.80;;;;;;;28.79;45.88;99487.50;4499734;31;33725;-67
2023/07/13 08:22:47;;;;;;;4.25;1.70;;;;;;;28.79;45.88;99478.44;4498439;31;33931;-72
2023/07/13 08:25:15;;;;;;;3.50;1.75;;;;;;;28.80;45.89;99482.84;4499821;31;33649;-67
2023/07/13 08:27:43;;;;;;;4.62;1.77;;;;;;;28.81;45.87;99489.97;4499731;31;34763;-72
2023/07/13 08:30:11;;;;;;;4.75;1.92;;;;;;;28.80;45.87;99485.59;4499336;31;33702;-65
2023/07/13 08:32:38;;;;;;;5.07;2.05;;;;;;;28.81;45.88;99481.75;4499669;31;33260;-66
2023/07/13 08:35:06;;;;;;;3.97;1.80;;;;;;;28.81;45.88;99476.25;4500280;31;33969;-68
2023/07/13 08:37:34;;;;;;;3.40;1.70;;;;;;;28.81;45.90;99479.81;4500277;31;33598;-66
2023/07/13 08:40:01;;;;;;;3.87;1.80;;;;;;;28.82;45.92;99481.50;4501381;31;33830;-68
2023/07/13 08:43:07;;;;;;;3.65;1.87;;;;;;;28.81;45.95;99484.47;4501340;31;34367;-66
2023/07/13 08:45:40;;;;;;;2.00;1.52;;;;;;;28.83;45.95;99477.63;4483963;31;32346;-67
2023/07/13 08:48:19;;;;;;;4.90;1.98;;;;;;;28.83;45.97;99476.81;4500436;31;33921;-67
2023/07/13 08:50:55;;;;;;;3.17;1.77;;;;;;;28.82;45.99;99483.37;4500112;31;34585;-72
2023/07/13 08:53:39;;;;;;;3.28;1.80;;;;;;;28.84;45.99;99486.69;4500233;31;33007;-66
2023/07/13 08:56:11;;;;;;;3.08;2.05;;;;;;;28.84;46.00;99483.97;4500219;31;33939;-65
2023/07/13 08:58:39;;;;;;;2.90;1.80;;;;;;;28.84;46.03;99489.44;4500322;31;33692;-69
2023/07/13 09:01:16;;;;;;;4.50;2.10;;;;;;;28.84;46.02;99479.28;4500365;31;33869;-66
2023/07/13 09:04:07;;;;;;;3.30;1.90;;;;;;;28.85;46.04;99475.44;4500203;31;33358;-66
2023/07/13 09:06:42;;;;;;;3.15;1.90;;;;;;;28.86;46.02;99477.09;4500013;31;33924;-72
2023/07/13 09:09:28;;;;;;;3.87;2.08;;;;;;;28.86;46.04;99484.50;4487696;31;34544;-65
2023/07/13 09:12:11;;;;;;;4.20;2.00;;;;;;;28.87;46.03;99484.25;4499995;31;33869;-67
2023/07/13 09:14:45;;;;;;;4.78;1.90;;;;;;;28.88;46.03;99479.56;4500085;31;34067;-70
2023/07/13 09:17:16;;;;;;;3.95;1.90;;;;;;;28.87;46.07;99472.44;4487184;31;33613;-69
2023/07/13 09:19:47;;;;;;;2.85;1.75;;;;;;;28.86;46.11;99476.25;4487213;31;34699;-66
2023/07/13 09:22:18;;;;;;;4.82;2.17;;;;;;;28.86;46.11;99473.50;4501132;31;33975;-69
2023/07/13 09:24:58;;;;;;;4.18;2.10;;;;;;;28.88;46.08;99474.09;4499803;31;34411;-66
2023/07/13 09:27:36;;;;;;;3.67;1.83;;;;;;;28.87;46.06;99484.25;4499937;31;34015;-71
2023/07/13 09:30:10;;;;;;;4.22;2.40;;;;;;;28.90;46.04;99480.13;4499651;31;33482;-72
2023/07/13 09:32:37;;;;;;;3.72;1.77;;;;;;;28.91;46.08;99492.75;4501088;31;34053;-66
2023/07/13 09:35:11;;;;;;;3.17;1.70;;;;;;;28.89;46.09;99490.28;4499890;31;34592;-71
2023/07/13 09:37:41;;;;;;;2.92;1.83;;;;;;;28.89;46.13;99495.78;4499832;31;34311;-65
2023/07/13 09:40:13;;;;;;;3.60;2.15;;;;;;;28.89;46.11;99487.53;4499823;31;34886;-66
2023/07/13 09:42:40;;;;;;;3.67;2.00;;;;;;;28.91;46.13;99490.00;4486859;31;33743;-71
2023/07/13 09:45:09;;;;;;;4.55;1.67;;;;;;;28.92;46.10;99491.69;4486412;31;34275;-66
2023/07/13 09:47:40;;;;;;;3.17;1.65;;;;;;;28.91;46.10;99499.09;4501304;31;33705;-67
2023/07/13 09:50:14;;;;;;;2.95;1.77;;;;;;;28.90;46.11;99500.16;4500769;31;34927;-66
2023/07/13 09:52:47;;;;;;;3.67;2.20;;;;;;;28.92;46.09;99499.91;4499733;31;33952;-67
2023/07/13 09:55:37;;;;;;;4.10;1.80;;;;;;;28.91;46.12;99501.84;4500786;31;33282;-66
2023/07/13 09:58:19;;;;;;;3.08;1.90;;;;;;;28.96;46.07;99498.31;4500813;31;33685;-66
2023/07/13 10:01:02;;;;;;;3.83;1.87;;;;;;;28.94;46.12;99504.03;4499684;31;34711;-65
2023/07/13 10:03:37;;;;;;;3.80;2.22;;;;;;;28.95;46.09;99504.87;4500784;31;33762;-67
2023/07/13 10:06:13;;;;;;;4.20;2.00;;;;;;;28.92;46.13;99502.66;4499685;31;33349;-67
2023/07/13 10:08:40;;;;;;;2.75;1.95;;;;;;;28.94;46.13;99505.94;4500965;31;34698;-65
2023/07/13 10:11:10;;;;;;;4.93;2.12;;;;;;;28.93;46.14;99512.53;4500607;31;34897;-69
2023/07/13 10:13:43;;;;;;;3.12;1.90;;;;;;;28.93;46.14;99505.13;4499590;31;34056;-66
2023/07/13 10:16:10;;;;;;;4.03;2.03;;;;;;;28.95;46.14;99502.12;4499420;31;33327;-65
2023/07/13 10:19:15;;;;;;;4.15;2.05;;;;;;;28.94;46.11;99497.72;4499664;31;34067;-66
2023/07/13 10:21:51;;;;;;;4.53;2.20;;;;;;;28.98;46.06;99509.84;4500460;31;34945;-66
2023/07/13 10:24:34;;;;;;;4.00;1.70;;;;;;;28.96;46.11;99509.28;4500556;31;34456;-65
2023/07/13 10:27:14;;;;;;;3.72;2.00;;;;;;;28.95;46.12;99511.19;4500802;31;33339;-67
2023/07/13 10:29:58;;;;;;;3.70;1.90;;;;;;;28.97;46.10;99513.69;4500638;31;33684;-66
2023/07/13 10:32:26;;;;;;;4.22;1.85;;;;;;;28.99;46.08;99511.47;4486703;31;33993;-67
2023/07/13 10:34:56;;;;;;;4.35;2.00;;;;;;;28.96;46.10;99512.87;4499447;31;34089;-66
2023/07/13 10:37:26;;;;;;;3.62;2.00;;;;;;;28.97;46.11;99502.69;4499664;31;33169;-68
2023/07/13 10:39:56;;;;;;;2.83;1.73;;;;;;;28.97;46.10;99505.44;4499741;31;33643;-66
2023/07/13 10:42:36;;;;;;;3.10;1.70;;;;;;;28.97;46.11;99510.94;4486463;31;33933;-67
2023/07/13 10:45:21;;;;;;;3.35;2.03;;;;;;;29.01;46.04;99511.22;4500563;31;33869;-66
2023/07/13 10:47:49;;;;;;;3.90;1.83;;;;;;;29.02;46.01;99507.38;4486606;31;33542;-69
2023/07/13 10:50:20;;;;;;;3.60;2.15;;;;;;;29.00;46.07;99512.31;4499453;31;34068;-68
2023/07/13 10:52:54;;;;;;;3.75;2.28;;;;;;;28.98;46.06;99513.41;4499602;31;34027;-67
2023/07/13 10:55:37;;;;;;;4.10;2.20;;;;;;;29.00;46.04;99513.13;4500435;31;34583;-66
2023/07/13 10:58:13;;;;;;;3.53;2.25;;;;;;;29.01;46.01;99512.06;4498397;31;33448;-65
2023/07/13 11:01:00;;;;;;;3.53;1.95;;;;;;;29.00;46.03;99496.66;4499371;31;33832;-65
2023/07/13 11:03:27;;;;;;;3.65;2.05;;;;;;;29.02;45.99;99491.72;4500571;31;33519;-66
2023/07/13 11:06:21;;;;;;;3.87;2.15;;;;;;;29.01;46.03;99500.25;4499170;31;33977;-66
2023/07/13 11:08:48;;;;;;;4.47;2.30;;;;;;;29.03;46.00;99509.84;4500348;31;34233;-65
2023/07/13 11:11:26;;;;;;;3.85;2.20;;;;;;;29.02;46.02;99508.22;4500401;31;34002;-67
2023/07/13 11:13:53;;;;;;;3.00;2.05;;;;;;;29.03;46.01;99495.28;4500697;31;34235;-70
2023/07/13 11:16:23;;;;;;;4.62;2.10;;;;;;;29.02;46.01;99504.63;4500055;31;34247;-68
2023/07/13 11:18:52;;;;;;;4.97;2.53;;;;;;;29.01;46.03;99508.50;4500353;31;33618;-72
2023/07/13 11:21:21;;;;;;;3.90;2.28;;;;;;;29.02;46.00;99516.44;4499320;31;33919;-66
2023/07/13 11:24:04;;;;;;;3.28;1.90;;;;;;;29.03;45.97;99509.84;4499199;31;33581;-72
2023/07/13 11:26:41;;;;;;;3.58;2.10;;;;;;;29.05;45.96;99496.69;4499068;31;33768;-66
2023/07/13 11:29:25;;;;;;;3.37;2.17;;;;;;;29.05;45.95;99491.19;4500502;31;33303;-67
2023/07/13 11:31:54;;;;;;;4.25;2.35;;;;;;;29.07;45.93;99493.66;4499005;31;33546;-65
2023/07/13 11:34:42;;;;;;;4.97;2.33;;;;;;;29.04;45.95;99500.50;4499005;31;33754;-71
2023/07/13 11:37:14;;;;;;;3.95;2.03;;;;;;;29.08;45.88;99496.13;4499165;31;34574;-66
2023/07/13 11:39:42;;;;;;;3.42;1.85;;;;;;;29.05;45.94;99496.69;4498981;31;33366;-72
2023/07/13 11:42:16;;;;;;;3.75;2.17;;;;;;;29.05;45.93;99493.94;4486488;31;33913;-66
2023/07/13 11:44:46;;;;;;;4.20;2.58;;;;;;;29.05;45.95;99499.44;4499987;31;33863;-72
2023/07/13 11:47:34;;;;;;;3.62;2.10;;;;;;;29.06;45.93;99495.59;4499187;31;34543;-72
2023/07/13 11:50:01;;;;;;;3.35;2.00;;;;;;;29.07;45.90;99502.72;4499993;31;34209;-67